ARG1848 SABE-SAVC
Flight info
| Callsign | ARG1848 |
|---|---|
| Flight time | 2h 20m |
| Altitude | FL340 |
| Route | PAL9 GBE UT694 IREMO UP664 GATUD |
| Aircraft | B738/M-VGDW/C |
Departure
| Time | 2026-05-03 22:18 |
|---|---|
| Airport | Aeroparque Jorge Newbery (SABE) |
Arrival
| Time | 2026-05-04 00:39 |
|---|---|
| Airport | General Enrique Mosconi International Airport (SAVC) |
| Time | Latitude | Longitude | Altitude | Speed | Heading |
|---|---|---|---|---|---|
| 2026-05-03 21:45 | -34.55698 | -58.41444 | 25 ft | 0 kts | 18° |
| 2026-05-03 22:07 | -34.55706 | -58.41447 | 24 ft | 2 kts | 18° |
| 2026-05-03 22:08 | -34.55721 | -58.41453 | 30 ft | 2 kts | 18° |
| 2026-05-03 22:08 | -34.55737 | -58.41459 | 26 ft | 2 kts | 18° |
| 2026-05-03 22:08 | -34.55752 | -58.41464 | 28 ft | 2 kts | 357° |
| 2026-05-03 22:08 | -34.55755 | -58.41465 | 28 ft | 0 kts | 350° |
| 2026-05-03 22:11 | -34.55753 | -58.41465 | 28 ft | 1 kts | 349° |
| 2026-05-03 22:12 | -34.55746 | -58.41470 | 28 ft | 2 kts | 328° |
| 2026-05-03 22:12 | -34.55733 | -58.41486 | 26 ft | 3 kts | 308° |
| 2026-05-03 22:12 | -34.55724 | -58.41519 | 24 ft | 5 kts | 273° |
| 2026-05-03 22:12 | -34.55741 | -58.41560 | 27 ft | 6 kts | 227° |
| 2026-05-03 22:13 | -34.55785 | -58.41585 | 24 ft | 8 kts | 171° |
| 2026-05-03 22:13 | -34.55825 | -58.41537 | 24 ft | 9 kts | 117° |
| 2026-05-03 22:13 | -34.55859 | -58.41460 | 27 ft | 11 kts | 118° |
| 2026-05-03 22:13 | -34.55898 | -58.41369 | 26 ft | 13 kts | 117° |
| 2026-05-03 22:14 | -34.55947 | -58.41267 | 24 ft | 15 kts | 125° |
| 2026-05-03 22:14 | -34.56010 | -58.41164 | 25 ft | 15 kts | 127° |
| 2026-05-03 22:14 | -34.56076 | -58.41055 | 25 ft | 17 kts | 126° |
| 2026-05-03 22:14 | -34.56146 | -58.40937 | 26 ft | 18 kts | 121° |
| 2026-05-03 22:15 | -34.56192 | -58.40806 | 24 ft | 13 kts | 114° |
| 2026-05-03 22:15 | -34.56238 | -58.40712 | 28 ft | 13 kts | 122° |
| 2026-05-03 22:15 | -34.56287 | -58.40622 | 25 ft | 13 kts | 125° |
| 2026-05-03 22:15 | -34.56336 | -58.40556 | 25 ft | 8 kts | 135° |
| 2026-05-03 22:16 | -34.56375 | -58.40512 | 24 ft | 8 kts | 137° |
| 2026-05-03 22:16 | -34.56401 | -58.40484 | 24 ft | 0 kts | 138° |
| 2026-05-03 22:16 | -34.56406 | -58.40478 | 24 ft | 6 kts | 138° |
| 2026-05-03 22:17 | -34.56466 | -58.40413 | 26 ft | 15 kts | 138° |
| 2026-05-03 22:17 | -34.56547 | -58.40414 | 26 ft | 13 kts | 238° |
| 2026-05-03 22:17 | -34.56519 | -58.40512 | 26 ft | 11 kts | 303° |
| 2026-05-03 22:17 | -34.56462 | -58.40615 | 27 ft | 16 kts | 304° |
| 2026-05-03 22:18 | -34.56353 | -58.40810 | 25 ft | 55 kts | 304° |
| 2026-05-03 22:18 | -34.55986 | -58.41470 | 27 ft | 131 kts | 303° |
| 2026-05-03 22:18 | -34.55369 | -58.42512 | 386 ft | 162 kts | 308° |
| 2026-05-03 22:18 | -34.54702 | -58.43710 | 1082 ft | 178 kts | 309° |
| 2026-05-03 22:19 | -34.53725 | -58.44670 | 1832 ft | 192 kts | 341° |
| 2026-05-03 22:19 | -34.52351 | -58.44636 | 2092 ft | 216 kts | 24° |
| 2026-05-03 22:19 | -34.51107 | -58.43501 | 2397 ft | 238 kts | 39° |
| 2026-05-03 22:19 | -34.50052 | -58.41848 | 2785 ft | 262 kts | 66° |
| 2026-05-03 22:20 | -34.49897 | -58.39654 | 3628 ft | 269 kts | 99° |
| 2026-05-03 22:20 | -34.50390 | -58.37442 | 4381 ft | 278 kts | 107° |
| 2026-05-03 22:20 | -34.50971 | -58.35221 | 5229 ft | 280 kts | 108° |
| 2026-05-03 22:20 | -34.51554 | -58.32958 | 6029 ft | 284 kts | 108° |
| 2026-05-03 22:21 | -34.52130 | -58.30644 | 6784 ft | 289 kts | 108° |
| 2026-05-03 22:21 | -34.52700 | -58.28310 | 7582 ft | 291 kts | 108° |
| 2026-05-03 22:21 | -34.53286 | -58.25934 | 8281 ft | 298 kts | 111° |
| 2026-05-03 22:21 | -34.54377 | -58.23826 | 8950 ft | 297 kts | 141° |
| 2026-05-03 22:22 | -34.56017 | -58.22336 | 9737 ft | 296 kts | 150° |
| 2026-05-03 22:22 | -34.57758 | -58.20976 | 10424 ft | 302 kts | 152° |
| 2026-05-03 22:22 | -34.59601 | -58.19579 | 10626 ft | 325 kts | 152° |
| 2026-05-03 22:22 | -34.61586 | -58.18076 | 10817 ft | 348 kts | 152° |
| 2026-05-03 22:23 | -34.63683 | -58.16472 | 11027 ft | 367 kts | 152° |
| 2026-05-03 22:23 | -34.65855 | -58.14791 | 11561 ft | 374 kts | 152° |
| 2026-05-03 22:23 | -34.68045 | -58.13081 | 12261 ft | 376 kts | 152° |
| 2026-05-03 22:23 | -34.70247 | -58.11356 | 12960 ft | 378 kts | 152° |
| 2026-05-03 22:24 | -34.72456 | -58.09623 | 13626 ft | 381 kts | 152° |
| 2026-05-03 22:24 | -34.74687 | -58.07871 | 14239 ft | 384 kts | 152° |
| 2026-05-03 22:24 | -34.76568 | -58.06394 | 14706 ft | 387 kts | 153° |
| 2026-05-03 22:24 | -34.78838 | -58.04611 | 15262 ft | 391 kts | 153° |
| 2026-05-03 22:25 | -34.81133 | -58.02807 | 15798 ft | 395 kts | 153° |
| 2026-05-03 22:25 | -34.83443 | -58.00989 | 16379 ft | 398 kts | 153° |
| 2026-05-03 22:25 | -34.85771 | -57.99156 | 16932 ft | 402 kts | 153° |
| 2026-05-03 22:25 | -34.88127 | -57.97299 | 17474 ft | 406 kts | 153° |
| 2026-05-03 22:26 | -34.90502 | -57.95428 | 18019 ft | 409 kts | 154° |
| 2026-05-03 22:26 | -34.92896 | -57.93541 | 18528 ft | 412 kts | 154° |
| 2026-05-03 22:26 | -34.95444 | -57.92081 | 18937 ft | 401 kts | 172° |
| 2026-05-03 22:26 | -34.98156 | -57.91744 | 19438 ft | 389 kts | 189° |
| 2026-05-03 22:27 | -35.00809 | -57.92201 | 19925 ft | 384 kts | 199° |
| 2026-05-03 22:27 | -35.03337 | -57.93168 | 20405 ft | 380 kts | 208° |
| 2026-05-03 22:27 | -35.05644 | -57.94692 | 20859 ft | 378 kts | 215° |
| 2026-05-03 22:27 | -35.07878 | -57.96390 | 21328 ft | 380 kts | 216° |
| 2026-05-03 22:28 | -35.10110 | -57.98129 | 21785 ft | 382 kts | 217° |
| 2026-05-03 22:28 | -35.12346 | -57.99880 | 22258 ft | 384 kts | 217° |
| 2026-05-03 22:28 | -35.14597 | -58.01637 | 22684 ft | 386 kts | 217° |
| 2026-05-03 22:28 | -35.16864 | -58.03397 | 23091 ft | 389 kts | 217° |
| 2026-05-03 22:29 | -35.19155 | -58.05168 | 23514 ft | 391 kts | 217° |
| 2026-05-03 22:29 | -35.21454 | -58.06940 | 23907 ft | 392 kts | 217° |
| 2026-05-03 22:29 | -35.23765 | -58.08717 | 24281 ft | 393 kts | 217° |
| 2026-05-03 22:29 | -35.26080 | -58.10495 | 24643 ft | 395 kts | 217° |
| 2026-05-03 22:30 | -35.28406 | -58.12282 | 24998 ft | 396 kts | 217° |
| 2026-05-03 22:30 | -35.30732 | -58.14070 | 25364 ft | 397 kts | 217° |
| 2026-05-03 22:30 | -35.33069 | -58.15868 | 25707 ft | 398 kts | 217° |
| 2026-05-03 22:30 | -35.35410 | -58.17670 | 26037 ft | 400 kts | 217° |
| 2026-05-03 22:31 | -35.37768 | -58.19486 | 26363 ft | 401 kts | 217° |
| 2026-05-03 22:31 | -35.40124 | -58.21302 | 26710 ft | 402 kts | 217° |
| 2026-05-03 22:31 | -35.42491 | -58.23127 | 27026 ft | 403 kts | 217° |
| 2026-05-03 22:31 | -35.44858 | -58.24954 | 27334 ft | 404 kts | 217° |
| 2026-05-03 22:32 | -35.47238 | -58.26793 | 27622 ft | 406 kts | 217° |
| 2026-05-03 22:32 | -35.49627 | -58.28640 | 27931 ft | 407 kts | 217° |
| 2026-05-03 22:32 | -35.52014 | -58.30485 | 28323 ft | 405 kts | 217° |
| 2026-05-03 22:32 | -35.54380 | -58.32315 | 28824 ft | 402 kts | 217° |
| 2026-05-03 22:33 | -35.56728 | -58.34131 | 29332 ft | 398 kts | 217° |
| 2026-05-03 22:33 | -35.59064 | -58.35941 | 29808 ft | 396 kts | 217° |
| 2026-05-03 22:33 | -35.61381 | -58.37737 | 30207 ft | 394 kts | 217° |
| 2026-05-03 22:33 | -35.63688 | -58.39528 | 30534 ft | 393 kts | 217° |
| 2026-05-03 22:34 | -35.65995 | -58.41321 | 30863 ft | 392 kts | 217° |
| 2026-05-03 22:34 | -35.68294 | -58.43108 | 31242 ft | 390 kts | 217° |
| 2026-05-03 22:34 | -35.70571 | -58.44879 | 31581 ft | 389 kts | 217° |
| 2026-05-03 22:34 | -35.72854 | -58.46657 | 31866 ft | 388 kts | 217° |
| 2026-05-03 22:35 | -35.75127 | -58.48428 | 32173 ft | 388 kts | 217° |
| 2026-05-03 22:35 | -35.77395 | -58.50196 | 32537 ft | 385 kts | 217° |
| 2026-05-03 22:35 | -35.79652 | -58.51956 | 32852 ft | 384 kts | 217° |
| 2026-05-03 22:35 | -35.81907 | -58.53716 | 33122 ft | 384 kts | 217° |
| 2026-05-03 22:36 | -35.84161 | -58.55478 | 33345 ft | 385 kts | 217° |
| 2026-05-03 22:36 | -35.86414 | -58.57239 | 33624 ft | 384 kts | 217° |
| 2026-05-03 22:36 | -35.88661 | -58.58997 | 33935 ft | 383 kts | 217° |
| 2026-05-03 22:37 | -35.93175 | -58.62533 | 34041 ft | 386 kts | 217° |
| 2026-05-03 22:37 | -35.97645 | -58.66036 | 34027 ft | 381 kts | 217° |
| 2026-05-03 22:38 | -36.02103 | -58.69535 | 34032 ft | 379 kts | 217° |
| 2026-05-03 22:38 | -36.06537 | -58.73020 | 34027 ft | 378 kts | 217° |
| 2026-05-03 22:39 | -36.10956 | -58.76499 | 34024 ft | 377 kts | 217° |
| 2026-05-03 22:39 | -36.15370 | -58.79979 | 34021 ft | 377 kts | 217° |
| 2026-05-03 22:40 | -36.19779 | -58.83461 | 34021 ft | 377 kts | 217° |
| 2026-05-03 22:40 | -36.24201 | -58.86956 | 34021 ft | 378 kts | 217° |
| 2026-05-03 22:41 | -36.28634 | -58.90465 | 34020 ft | 379 kts | 217° |
| 2026-05-03 22:41 | -36.33071 | -58.93981 | 34014 ft | 380 kts | 217° |
| 2026-05-03 22:42 | -36.37516 | -58.97509 | 34011 ft | 380 kts | 217° |
| 2026-05-03 22:42 | -36.41964 | -59.01044 | 34006 ft | 381 kts | 217° |
| 2026-05-03 22:43 | -36.46412 | -59.04584 | 34009 ft | 380 kts | 217° |
| 2026-05-03 22:43 | -36.50856 | -59.08125 | 34006 ft | 380 kts | 217° |
| 2026-05-03 22:44 | -36.55292 | -59.11665 | 34004 ft | 379 kts | 217° |
| 2026-05-03 22:44 | -36.59721 | -59.15204 | 33998 ft | 378 kts | 217° |
| 2026-05-03 22:45 | -36.64134 | -59.18736 | 34002 ft | 377 kts | 217° |
| 2026-05-03 22:45 | -36.68538 | -59.22265 | 33994 ft | 377 kts | 217° |
| 2026-05-03 22:46 | -36.72925 | -59.25786 | 34000 ft | 376 kts | 217° |
| 2026-05-03 22:46 | -36.77309 | -59.29308 | 34001 ft | 375 kts | 217° |
| 2026-05-03 22:47 | -36.81687 | -59.32832 | 33994 ft | 375 kts | 217° |
| 2026-05-03 22:47 | -36.86058 | -59.36354 | 33993 ft | 375 kts | 217° |
| 2026-05-03 22:48 | -36.90425 | -59.39878 | 33990 ft | 374 kts | 217° |
| 2026-05-03 22:48 | -36.94787 | -59.43403 | 33981 ft | 374 kts | 217° |
| 2026-05-03 22:49 | -36.99154 | -59.46936 | 33987 ft | 374 kts | 217° |
| 2026-05-03 22:49 | -37.03516 | -59.50470 | 33979 ft | 374 kts | 217° |
| 2026-05-03 22:50 | -37.07150 | -59.53419 | 33972 ft | 374 kts | 217° |
| 2026-05-03 22:50 | -37.12236 | -59.57551 | 33975 ft | 374 kts | 217° |
| 2026-05-03 22:51 | -37.16599 | -59.61101 | 33981 ft | 374 kts | 217° |
| 2026-05-03 22:51 | -37.20953 | -59.64649 | 33974 ft | 374 kts | 217° |
| 2026-05-03 22:52 | -37.25305 | -59.68200 | 33972 ft | 374 kts | 217° |
| 2026-05-03 22:52 | -37.29658 | -59.71756 | 33963 ft | 374 kts | 217° |
| 2026-05-03 22:53 | -37.34000 | -59.75309 | 33970 ft | 373 kts | 217° |
| 2026-05-03 22:53 | -37.38337 | -59.78863 | 33966 ft | 373 kts | 217° |
| 2026-05-03 22:54 | -37.42673 | -59.82420 | 33965 ft | 373 kts | 217° |
| 2026-05-03 22:54 | -37.47001 | -59.85976 | 33960 ft | 372 kts | 217° |
| 2026-05-03 22:55 | -37.51324 | -59.89534 | 33959 ft | 371 kts | 217° |
| 2026-05-03 22:55 | -37.55636 | -59.93086 | 33951 ft | 371 kts | 217° |
| 2026-05-03 22:56 | -37.59938 | -59.96637 | 33948 ft | 370 kts | 217° |
| 2026-05-03 22:56 | -37.64230 | -60.00182 | 33944 ft | 369 kts | 217° |
| 2026-05-03 22:57 | -37.68514 | -60.03728 | 33949 ft | 369 kts | 216° |
| 2026-05-03 22:57 | -37.72794 | -60.07274 | 33944 ft | 368 kts | 217° |
| 2026-05-03 22:58 | -37.77064 | -60.10817 | 33935 ft | 368 kts | 216° |
| 2026-05-03 22:58 | -37.81328 | -60.14361 | 33935 ft | 367 kts | 216° |
| 2026-05-03 22:59 | -37.85589 | -60.17906 | 33929 ft | 367 kts | 216° |
| 2026-05-03 22:59 | -37.89850 | -60.21457 | 33932 ft | 367 kts | 216° |
| 2026-05-03 23:00 | -37.94100 | -60.25004 | 33928 ft | 367 kts | 216° |
| 2026-05-03 23:00 | -37.98347 | -60.28553 | 33921 ft | 366 kts | 216° |
| 2026-05-03 23:01 | -38.02591 | -60.32104 | 33919 ft | 366 kts | 216° |
| 2026-05-03 23:01 | -38.06823 | -60.35650 | 33899 ft | 365 kts | 216° |
| 2026-05-03 23:02 | -38.11052 | -60.39201 | 33914 ft | 366 kts | 216° |
| 2026-05-03 23:02 | -38.15287 | -60.42758 | 33912 ft | 366 kts | 216° |
| 2026-05-03 23:03 | -38.19530 | -60.46329 | 33908 ft | 367 kts | 216° |
| 2026-05-03 23:03 | -38.23779 | -60.49910 | 33913 ft | 367 kts | 216° |
| 2026-05-03 23:04 | -38.28027 | -60.53495 | 33904 ft | 368 kts | 216° |
| 2026-05-03 23:04 | -38.32286 | -60.57095 | 33901 ft | 368 kts | 216° |
| 2026-05-03 23:05 | -38.36539 | -60.60694 | 33895 ft | 368 kts | 216° |
| 2026-05-03 23:05 | -38.40795 | -60.64301 | 33890 ft | 368 kts | 216° |
| 2026-05-03 23:06 | -38.45045 | -60.67909 | 33889 ft | 368 kts | 217° |
| 2026-05-03 23:06 | -38.49296 | -60.71522 | 33888 ft | 368 kts | 217° |
| 2026-05-03 23:07 | -38.53545 | -60.75139 | 33881 ft | 368 kts | 217° |
| 2026-05-03 23:07 | -38.57796 | -60.78763 | 33879 ft | 368 kts | 217° |
| 2026-05-03 23:08 | -38.62044 | -60.82390 | 33874 ft | 368 kts | 217° |
| 2026-05-03 23:08 | -38.66294 | -60.86024 | 33871 ft | 368 kts | 217° |
| 2026-05-03 23:09 | -38.70549 | -60.89667 | 33865 ft | 369 kts | 217° |
| 2026-05-03 23:09 | -38.74803 | -60.93315 | 33866 ft | 369 kts | 217° |
| 2026-05-03 23:10 | -38.79065 | -60.96975 | 33861 ft | 370 kts | 217° |
| 2026-05-03 23:10 | -38.83330 | -61.00642 | 33858 ft | 370 kts | 217° |
| 2026-05-03 23:11 | -38.87596 | -61.04316 | 33853 ft | 370 kts | 217° |
| 2026-05-03 23:11 | -38.91865 | -61.07997 | 33851 ft | 371 kts | 217° |
| 2026-05-03 23:12 | -38.96145 | -61.11694 | 33847 ft | 371 kts | 217° |
| 2026-05-03 23:12 | -39.00420 | -61.15392 | 33842 ft | 372 kts | 217° |
| 2026-05-03 23:13 | -39.04702 | -61.19102 | 33838 ft | 372 kts | 217° |
| 2026-05-03 23:13 | -39.08990 | -61.22822 | 33838 ft | 372 kts | 217° |
| 2026-05-03 23:14 | -39.13274 | -61.26544 | 33832 ft | 373 kts | 217° |
| 2026-05-03 23:14 | -39.17565 | -61.30279 | 33832 ft | 373 kts | 217° |
| 2026-05-03 23:15 | -39.21853 | -61.34016 | 33832 ft | 373 kts | 218° |
| 2026-05-03 23:15 | -39.26150 | -61.37767 | 33829 ft | 374 kts | 218° |
| 2026-05-03 23:16 | -39.30450 | -61.41526 | 33823 ft | 374 kts | 218° |
| 2026-05-03 23:16 | -39.34750 | -61.45291 | 33815 ft | 375 kts | 218° |
| 2026-05-03 23:17 | -39.39055 | -61.49065 | 33813 ft | 375 kts | 218° |
| 2026-05-03 23:17 | -39.43360 | -61.52846 | 33810 ft | 375 kts | 218° |
| 2026-05-03 23:18 | -39.47673 | -61.56639 | 33807 ft | 376 kts | 218° |
| 2026-05-03 23:18 | -39.51984 | -61.60436 | 33800 ft | 376 kts | 218° |
| 2026-05-03 23:19 | -39.56302 | -61.64246 | 33796 ft | 376 kts | 218° |
| 2026-05-03 23:19 | -39.60626 | -61.68066 | 33793 ft | 377 kts | 218° |
| 2026-05-03 23:20 | -39.64952 | -61.71894 | 33787 ft | 378 kts | 218° |
| 2026-05-03 23:20 | -39.69285 | -61.75734 | 33786 ft | 378 kts | 218° |
| 2026-05-03 23:21 | -39.73623 | -61.79585 | 33785 ft | 378 kts | 218° |
| 2026-05-03 23:21 | -39.77960 | -61.83442 | 33779 ft | 379 kts | 218° |
| 2026-05-03 23:22 | -39.84474 | -61.89244 | 33773 ft | 379 kts | 219° |
| 2026-05-03 23:22 | -39.88726 | -61.93256 | 33880 ft | 379 kts | 228° |
| 2026-05-03 23:23 | -39.92855 | -61.97667 | 33792 ft | 390 kts | 228° |
| 2026-05-03 23:23 | -39.97072 | -62.02249 | 33777 ft | 401 kts | 227° |
| 2026-05-03 23:24 | -40.01380 | -62.06899 | 33766 ft | 403 kts | 227° |
| 2026-05-03 23:24 | -40.05701 | -62.11543 | 33757 ft | 404 kts | 227° |
| 2026-05-03 23:25 | -40.10028 | -62.16198 | 33752 ft | 404 kts | 227° |
| 2026-05-03 23:25 | -40.14352 | -62.20860 | 33746 ft | 403 kts | 227° |
| 2026-05-03 23:26 | -40.18665 | -62.25519 | 33744 ft | 403 kts | 227° |
| 2026-05-03 23:26 | -40.22973 | -62.30181 | 33742 ft | 403 kts | 227° |
| 2026-05-03 23:27 | -40.27272 | -62.34841 | 33741 ft | 402 kts | 227° |
| 2026-05-03 23:27 | -40.31572 | -62.39511 | 33735 ft | 402 kts | 227° |
| 2026-05-03 23:28 | -40.35865 | -62.44180 | 33732 ft | 402 kts | 227° |
| 2026-05-03 23:28 | -40.40154 | -62.48854 | 33737 ft | 402 kts | 227° |
| 2026-05-03 23:29 | -40.44441 | -62.53533 | 33735 ft | 402 kts | 227° |
| 2026-05-03 23:29 | -40.48486 | -62.57956 | 33729 ft | 402 kts | 227° |
| 2026-05-03 23:30 | -40.52770 | -62.62648 | 33730 ft | 402 kts | 227° |
| 2026-05-03 23:30 | -40.57059 | -62.67353 | 33732 ft | 402 kts | 227° |
| 2026-05-03 23:31 | -40.61346 | -62.72065 | 33723 ft | 402 kts | 227° |
| 2026-05-03 23:31 | -40.65633 | -62.76784 | 33722 ft | 403 kts | 227° |
| 2026-05-03 23:32 | -40.69921 | -62.81513 | 33722 ft | 403 kts | 227° |
| 2026-05-03 23:32 | -40.74209 | -62.86251 | 33722 ft | 403 kts | 227° |
| 2026-05-03 23:33 | -40.78500 | -62.90999 | 33726 ft | 403 kts | 228° |
| 2026-05-03 23:33 | -40.82786 | -62.95750 | 33731 ft | 403 kts | 228° |
| 2026-05-03 23:34 | -40.87096 | -63.00491 | 33723 ft | 406 kts | 225° |
| 2026-05-03 23:34 | -40.91698 | -63.04838 | 33728 ft | 409 kts | 223° |
| 2026-05-03 23:35 | -40.96386 | -63.09081 | 33725 ft | 409 kts | 223° |
| 2026-05-03 23:35 | -41.01051 | -63.13331 | 33716 ft | 408 kts | 223° |
| 2026-05-03 23:36 | -41.05699 | -63.17608 | 33716 ft | 407 kts | 223° |
| 2026-05-03 23:36 | -41.10328 | -63.21890 | 33710 ft | 407 kts | 223° |
| 2026-05-03 23:37 | -41.14952 | -63.26180 | 33697 ft | 406 kts | 224° |
| 2026-05-03 23:37 | -41.19566 | -63.30467 | 33690 ft | 405 kts | 224° |
| 2026-05-03 23:38 | -41.24171 | -63.34754 | 33694 ft | 405 kts | 224° |
| 2026-05-03 23:38 | -41.28770 | -63.39042 | 33686 ft | 404 kts | 224° |
| 2026-05-03 23:39 | -41.33358 | -63.43327 | 33687 ft | 403 kts | 224° |
| 2026-05-03 23:39 | -41.37933 | -63.47609 | 33684 ft | 403 kts | 224° |
| 2026-05-03 23:40 | -41.42503 | -63.51892 | 33684 ft | 402 kts | 224° |
| 2026-05-03 23:40 | -41.47062 | -63.56173 | 33681 ft | 401 kts | 224° |
| 2026-05-03 23:41 | -41.51607 | -63.60449 | 33679 ft | 401 kts | 224° |
| 2026-05-03 23:41 | -41.56146 | -63.64726 | 33672 ft | 400 kts | 224° |
| 2026-05-03 23:42 | -41.60678 | -63.69004 | 33665 ft | 399 kts | 224° |
| 2026-05-03 23:42 | -41.65195 | -63.73275 | 33664 ft | 398 kts | 224° |
| 2026-05-03 23:43 | -41.69702 | -63.77545 | 33664 ft | 397 kts | 224° |
| 2026-05-03 23:43 | -41.74200 | -63.81812 | 33662 ft | 397 kts | 224° |
| 2026-05-03 23:44 | -41.78686 | -63.86077 | 33661 ft | 396 kts | 224° |
| 2026-05-03 23:44 | -41.83171 | -63.90349 | 33658 ft | 396 kts | 224° |
| 2026-05-03 23:45 | -41.87649 | -63.94620 | 33654 ft | 396 kts | 224° |
| 2026-05-03 23:45 | -41.92120 | -63.98894 | 33645 ft | 395 kts | 224° |
| 2026-05-03 23:46 | -41.96592 | -64.03174 | 33653 ft | 395 kts | 224° |
| 2026-05-03 23:46 | -42.01060 | -64.07460 | 33644 ft | 396 kts | 224° |
| 2026-05-03 23:47 | -42.05537 | -64.11762 | 33644 ft | 396 kts | 224° |
| 2026-05-03 23:47 | -42.10015 | -64.16071 | 33642 ft | 397 kts | 224° |
| 2026-05-03 23:48 | -42.14495 | -64.20391 | 33641 ft | 398 kts | 224° |
| 2026-05-03 23:48 | -42.18989 | -64.24731 | 33638 ft | 398 kts | 224° |
| 2026-05-03 23:49 | -42.23486 | -64.29082 | 33639 ft | 399 kts | 224° |
| 2026-05-03 23:49 | -42.27998 | -64.33456 | 33634 ft | 400 kts | 224° |
| 2026-05-03 23:50 | -42.31765 | -64.37114 | 33635 ft | 401 kts | 224° |
| 2026-05-03 23:50 | -42.37050 | -64.42254 | 33631 ft | 403 kts | 224° |
| 2026-05-03 23:51 | -42.41591 | -64.46679 | 33634 ft | 404 kts | 224° |
| 2026-05-03 23:51 | -42.46148 | -64.51128 | 33635 ft | 405 kts | 224° |
| 2026-05-03 23:52 | -42.50712 | -64.55593 | 33631 ft | 406 kts | 224° |
| 2026-05-03 23:52 | -42.55283 | -64.60071 | 33629 ft | 407 kts | 224° |
| 2026-05-03 23:53 | -42.59864 | -64.64568 | 33631 ft | 407 kts | 224° |
| 2026-05-03 23:53 | -42.64443 | -64.69071 | 33635 ft | 408 kts | 224° |
| 2026-05-03 23:54 | -42.69022 | -64.73584 | 33628 ft | 408 kts | 224° |
| 2026-05-03 23:54 | -42.73608 | -64.78111 | 33626 ft | 408 kts | 224° |
| 2026-05-03 23:55 | -42.78185 | -64.82638 | 33629 ft | 408 kts | 224° |
| 2026-05-03 23:55 | -42.82761 | -64.87172 | 33628 ft | 408 kts | 224° |
| 2026-05-03 23:56 | -42.87337 | -64.91715 | 33629 ft | 408 kts | 224° |
| 2026-05-03 23:56 | -42.91911 | -64.96265 | 33622 ft | 408 kts | 224° |
| 2026-05-03 23:57 | -42.96486 | -65.00824 | 33629 ft | 408 kts | 224° |
| 2026-05-03 23:57 | -43.01063 | -65.05395 | 33615 ft | 409 kts | 224° |
| 2026-05-03 23:58 | -43.05642 | -65.09975 | 33622 ft | 409 kts | 224° |
| 2026-05-03 23:58 | -43.10228 | -65.14572 | 33611 ft | 410 kts | 224° |
| 2026-05-03 23:59 | -43.14815 | -65.19179 | 33616 ft | 410 kts | 224° |
| 2026-05-03 23:59 | -43.19403 | -65.23793 | 33610 ft | 410 kts | 224° |
| 2026-05-04 00:00 | -43.24271 | -65.27978 | 33625 ft | 416 kts | 218° |
| 2026-05-04 00:00 | -43.29312 | -65.31881 | 33614 ft | 417 kts | 217° |
| 2026-05-04 00:01 | -43.34354 | -65.35796 | 33631 ft | 416 kts | 218° |
| 2026-05-04 00:01 | -43.39360 | -65.39722 | 33615 ft | 414 kts | 218° |
| 2026-05-04 00:02 | -43.44329 | -65.43661 | 33619 ft | 412 kts | 218° |
| 2026-05-04 00:02 | -43.49280 | -65.47598 | 33615 ft | 412 kts | 218° |
| 2026-05-04 00:03 | -43.54223 | -65.51534 | 33610 ft | 411 kts | 218° |
| 2026-05-04 00:03 | -43.59161 | -65.55471 | 33612 ft | 411 kts | 218° |
| 2026-05-04 00:04 | -43.64107 | -65.59423 | 33611 ft | 412 kts | 218° |
| 2026-05-04 00:04 | -43.69053 | -65.63381 | 33614 ft | 412 kts | 218° |
| 2026-05-04 00:05 | -43.74010 | -65.67356 | 33608 ft | 413 kts | 218° |
| 2026-05-04 00:05 | -43.78979 | -65.71348 | 33610 ft | 414 kts | 218° |
| 2026-05-04 00:06 | -43.83955 | -65.75354 | 33599 ft | 415 kts | 218° |
| 2026-05-04 00:06 | -43.88938 | -65.79372 | 33595 ft | 415 kts | 218° |
| 2026-05-04 00:07 | -43.93851 | -65.83338 | 33592 ft | 405 kts | 218° |
| 2026-05-04 00:07 | -43.98692 | -65.87259 | 33585 ft | 404 kts | 218° |
| 2026-05-04 00:08 | -44.01136 | -65.89205 | 33198 ft | 404 kts | 216° |
| 2026-05-04 00:08 | -44.03594 | -65.91019 | 32819 ft | 400 kts | 215° |
| 2026-05-04 00:08 | -44.06058 | -65.92775 | 32418 ft | 396 kts | 215° |
| 2026-05-04 00:08 | -44.08488 | -65.94493 | 32007 ft | 392 kts | 215° |
| 2026-05-04 00:09 | -44.10902 | -65.96208 | 31616 ft | 387 kts | 215° |
| 2026-05-04 00:09 | -44.13278 | -65.97907 | 31215 ft | 384 kts | 216° |
| 2026-05-04 00:09 | -44.15636 | -65.99604 | 30829 ft | 380 kts | 216° |
| 2026-05-04 00:09 | -44.17961 | -66.01286 | 30439 ft | 376 kts | 216° |
| 2026-05-04 00:10 | -44.20260 | -66.02955 | 30069 ft | 372 kts | 216° |
| 2026-05-04 00:10 | -44.22544 | -66.04616 | 29700 ft | 369 kts | 216° |
| 2026-05-04 00:10 | -44.24805 | -66.06263 | 29268 ft | 365 kts | 216° |
| 2026-05-04 00:10 | -44.27040 | -66.07892 | 28900 ft | 360 kts | 216° |
| 2026-05-04 00:11 | -44.29241 | -66.09497 | 28512 ft | 356 kts | 216° |
| 2026-05-04 00:11 | -44.31416 | -66.11085 | 28135 ft | 351 kts | 216° |
| 2026-05-04 00:11 | -44.33561 | -66.12652 | 27761 ft | 347 kts | 217° |
| 2026-05-04 00:11 | -44.35680 | -66.14203 | 27399 ft | 343 kts | 217° |
| 2026-05-04 00:12 | -44.37780 | -66.15741 | 27031 ft | 339 kts | 217° |
| 2026-05-04 00:12 | -44.39857 | -66.17264 | 26677 ft | 336 kts | 217° |
| 2026-05-04 00:12 | -44.41910 | -66.18770 | 26323 ft | 332 kts | 217° |
| 2026-05-04 00:12 | -44.43944 | -66.20264 | 25974 ft | 329 kts | 217° |
| 2026-05-04 00:13 | -44.45959 | -66.21745 | 25621 ft | 327 kts | 217° |
| 2026-05-04 00:13 | -44.47957 | -66.23214 | 25270 ft | 324 kts | 217° |
| 2026-05-04 00:13 | -44.49949 | -66.24682 | 24915 ft | 323 kts | 217° |
| 2026-05-04 00:13 | -44.51931 | -66.26143 | 24584 ft | 322 kts | 217° |
| 2026-05-04 00:14 | -44.53927 | -66.27619 | 24256 ft | 329 kts | 217° |
| 2026-05-04 00:14 | -44.55979 | -66.29144 | 23897 ft | 338 kts | 217° |
| 2026-05-04 00:14 | -44.58052 | -66.30677 | 23536 ft | 337 kts | 217° |
| 2026-05-04 00:14 | -44.60117 | -66.32197 | 23170 ft | 335 kts | 217° |
| 2026-05-04 00:15 | -44.62165 | -66.33707 | 22749 ft | 332 kts | 217° |
| 2026-05-04 00:15 | -44.64195 | -66.35204 | 22381 ft | 329 kts | 217° |
| 2026-05-04 00:15 | -44.66203 | -66.36687 | 22019 ft | 325 kts | 217° |
| 2026-05-04 00:15 | -44.68190 | -66.38157 | 21662 ft | 322 kts | 217° |
| 2026-05-04 00:16 | -44.70157 | -66.39614 | 21310 ft | 319 kts | 217° |
| 2026-05-04 00:16 | -44.72104 | -66.41059 | 20954 ft | 316 kts | 217° |
| 2026-05-04 00:16 | -44.74033 | -66.42493 | 20609 ft | 313 kts | 217° |
| 2026-05-04 00:16 | -44.75945 | -66.43915 | 20270 ft | 311 kts | 217° |
| 2026-05-04 00:17 | -44.77852 | -66.45334 | 19924 ft | 309 kts | 217° |
| 2026-05-04 00:17 | -44.79742 | -66.46742 | 19587 ft | 307 kts | 217° |
| 2026-05-04 00:17 | -44.81623 | -66.48144 | 19251 ft | 306 kts | 217° |
| 2026-05-04 00:17 | -44.83491 | -66.49538 | 18924 ft | 304 kts | 216° |
| 2026-05-04 00:18 | -44.85357 | -66.50931 | 18586 ft | 303 kts | 216° |
| 2026-05-04 00:18 | -44.87213 | -66.52317 | 18257 ft | 302 kts | 216° |
| 2026-05-04 00:18 | -44.89060 | -66.53698 | 17926 ft | 301 kts | 216° |
| 2026-05-04 00:18 | -44.90903 | -66.55077 | 17551 ft | 300 kts | 216° |
| 2026-05-04 00:19 | -44.92740 | -66.56452 | 17203 ft | 299 kts | 216° |
| 2026-05-04 00:19 | -44.94569 | -66.57822 | 16854 ft | 297 kts | 216° |
| 2026-05-04 00:19 | -44.96381 | -66.59179 | 16522 ft | 295 kts | 215° |
| 2026-05-04 00:19 | -44.98185 | -66.60532 | 16199 ft | 293 kts | 215° |
| 2026-05-04 00:20 | -44.99975 | -66.61875 | 15875 ft | 291 kts | 215° |
| 2026-05-04 00:20 | -45.01757 | -66.63213 | 15558 ft | 289 kts | 215° |
| 2026-05-04 00:20 | -45.03523 | -66.64539 | 15230 ft | 288 kts | 214° |
| 2026-05-04 00:20 | -45.05280 | -66.65860 | 14910 ft | 286 kts | 214° |
| 2026-05-04 00:21 | -45.07025 | -66.67174 | 14596 ft | 284 kts | 214° |
| 2026-05-04 00:21 | -45.08762 | -66.68482 | 14276 ft | 283 kts | 214° |
| 2026-05-04 00:21 | -45.10492 | -66.69787 | 13966 ft | 282 kts | 214° |
| 2026-05-04 00:21 | -45.12217 | -66.71088 | 13654 ft | 281 kts | 213° |
| 2026-05-04 00:22 | -45.13932 | -66.72383 | 13327 ft | 280 kts | 213° |
| 2026-05-04 00:22 | -45.15641 | -66.73674 | 12976 ft | 279 kts | 213° |
| 2026-05-04 00:22 | -45.17349 | -66.74965 | 12642 ft | 277 kts | 213° |
| 2026-05-04 00:22 | -45.19042 | -66.76246 | 12322 ft | 276 kts | 213° |
| 2026-05-04 00:23 | -45.20726 | -66.77519 | 12012 ft | 274 kts | 213° |
| 2026-05-04 00:23 | -45.22403 | -66.78789 | 11694 ft | 273 kts | 213° |
| 2026-05-04 00:23 | -45.24067 | -66.80050 | 11372 ft | 271 kts | 213° |
| 2026-05-04 00:23 | -45.25722 | -66.81306 | 11054 ft | 270 kts | 213° |
| 2026-05-04 00:24 | -45.27369 | -66.82557 | 10753 ft | 268 kts | 213° |
| 2026-05-04 00:24 | -45.29010 | -66.83803 | 10436 ft | 267 kts | 213° |
| 2026-05-04 00:24 | -45.30640 | -66.85043 | 10126 ft | 266 kts | 213° |
| 2026-05-04 00:24 | -45.32266 | -66.86279 | 9846 ft | 264 kts | 213° |
| 2026-05-04 00:25 | -45.33851 | -66.87483 | 9736 ft | 255 kts | 213° |
| 2026-05-04 00:25 | -45.35388 | -66.88651 | 9619 ft | 247 kts | 213° |
| 2026-05-04 00:25 | -45.36877 | -66.89784 | 9502 ft | 239 kts | 214° |
| 2026-05-04 00:25 | -45.38337 | -66.90898 | 9241 ft | 238 kts | 214° |
| 2026-05-04 00:26 | -45.39780 | -66.92000 | 8998 ft | 235 kts | 214° |
| 2026-05-04 00:26 | -45.41215 | -66.93097 | 8731 ft | 233 kts | 214° |
| 2026-05-04 00:26 | -45.42639 | -66.94185 | 8468 ft | 232 kts | 214° |
| 2026-05-04 00:26 | -45.44050 | -66.95265 | 8207 ft | 231 kts | 214° |
| 2026-05-04 00:27 | -45.45458 | -66.96343 | 7945 ft | 229 kts | 214° |
| 2026-05-04 00:27 | -45.46852 | -66.97410 | 7685 ft | 227 kts | 215° |
| 2026-05-04 00:27 | -45.48239 | -66.98471 | 7426 ft | 226 kts | 215° |
| 2026-05-04 00:27 | -45.49615 | -66.99525 | 7172 ft | 224 kts | 215° |
| 2026-05-04 00:28 | -45.50978 | -67.00570 | 6926 ft | 223 kts | 215° |
| 2026-05-04 00:28 | -45.52341 | -67.01615 | 6671 ft | 222 kts | 216° |
| 2026-05-04 00:28 | -45.53691 | -67.02650 | 6420 ft | 221 kts | 216° |
| 2026-05-04 00:28 | -45.55038 | -67.03684 | 6163 ft | 220 kts | 216° |
| 2026-05-04 00:29 | -45.56377 | -67.04713 | 5921 ft | 219 kts | 216° |
| 2026-05-04 00:29 | -45.57709 | -67.05737 | 5660 ft | 218 kts | 217° |
| 2026-05-04 00:29 | -45.59037 | -67.06758 | 5398 ft | 217 kts | 217° |
| 2026-05-04 00:29 | -45.60355 | -67.07771 | 5207 ft | 212 kts | 217° |
| 2026-05-04 00:30 | -45.61623 | -67.08743 | 5098 ft | 204 kts | 218° |
| 2026-05-04 00:30 | -45.62844 | -67.09681 | 5025 ft | 197 kts | 218° |
| 2026-05-04 00:30 | -45.64049 | -67.10611 | 4947 ft | 197 kts | 218° |
| 2026-05-04 00:30 | -45.65261 | -67.11549 | 4889 ft | 200 kts | 218° |
| 2026-05-04 00:31 | -45.66485 | -67.12495 | 4700 ft | 200 kts | 218° |
| 2026-05-04 00:31 | -45.67692 | -67.13425 | 4520 ft | 196 kts | 219° |
| 2026-05-04 00:31 | -45.68881 | -67.14342 | 4328 ft | 193 kts | 219° |
| 2026-05-04 00:31 | -45.70059 | -67.15251 | 4087 ft | 191 kts | 219° |
| 2026-05-04 00:32 | -45.71221 | -67.16150 | 3864 ft | 190 kts | 219° |
| 2026-05-04 00:32 | -45.72377 | -67.17044 | 3634 ft | 189 kts | 219° |
| 2026-05-04 00:32 | -45.73525 | -67.17931 | 3419 ft | 187 kts | 220° |
| 2026-05-04 00:32 | -45.74586 | -67.18880 | 3193 ft | 171 kts | 236° |
| 2026-05-04 00:33 | -45.74997 | -67.20313 | 3013 ft | 150 kts | 262° |
| 2026-05-04 00:33 | -45.75374 | -67.22957 | 3042 ft | 126 kts | 259° |
| 2026-05-04 00:33 | -45.75574 | -67.24109 | 2970 ft | 114 kts | 260° |
| 2026-05-04 00:34 | -45.75739 | -67.25191 | 2949 ft | 100 kts | 261° |
| 2026-05-04 00:34 | -45.75863 | -67.26140 | 2604 ft | 104 kts | 263° |
| 2026-05-04 00:34 | -45.76014 | -67.27151 | 2460 ft | 104 kts | 259° |
| 2026-05-04 00:34 | -45.76214 | -67.28162 | 2253 ft | 107 kts | 260° |
| 2026-05-04 00:35 | -45.76417 | -67.29191 | 2097 ft | 106 kts | 262° |
| 2026-05-04 00:35 | -45.76568 | -67.30197 | 1968 ft | 102 kts | 265° |
| 2026-05-04 00:35 | -45.76702 | -67.31186 | 1779 ft | 102 kts | 266° |
| 2026-05-04 00:35 | -45.76787 | -67.32211 | 1595 ft | 105 kts | 268° |
| 2026-05-04 00:36 | -45.76874 | -67.33242 | 1434 ft | 104 kts | 266° |
| 2026-05-04 00:36 | -45.76991 | -67.34261 | 1324 ft | 104 kts | 266° |
| 2026-05-04 00:36 | -45.77094 | -67.35303 | 1235 ft | 109 kts | 267° |
| 2026-05-04 00:36 | -45.77225 | -67.36402 | 1209 ft | 114 kts | 264° |
| 2026-05-04 00:37 | -45.77361 | -67.37490 | 1127 ft | 112 kts | 263° |
| 2026-05-04 00:37 | -45.77518 | -67.38633 | 907 ft | 119 kts | 265° |
| 2026-05-04 00:37 | -45.77660 | -67.39792 | 777 ft | 119 kts | 265° |
| 2026-05-04 00:37 | -45.77799 | -67.40987 | 617 ft | 126 kts | 263° |
| 2026-05-04 00:38 | -45.77973 | -67.42209 | 555 ft | 126 kts | 264° |
| 2026-05-04 00:38 | -45.78130 | -67.43468 | 393 ft | 131 kts | 266° |
| 2026-05-04 00:38 | -45.78292 | -67.44747 | 240 ft | 129 kts | 266° |
| 2026-05-04 00:38 | -45.78455 | -67.45964 | 202 ft | 120 kts | 268° |
| 2026-05-04 00:39 | -45.78578 | -67.46984 | 198 ft | 83 kts | 260° |
| 2026-05-04 00:39 | -45.78643 | -67.47485 | 200 ft | 18 kts | 260° |
| 2026-05-04 00:39 | -45.78663 | -67.47661 | 200 ft | 18 kts | 264° |
| 2026-05-04 00:39 | -45.78663 | -67.47793 | 198 ft | 5 kts | 237° |
| 2026-05-04 00:40 | -45.78688 | -67.47776 | 202 ft | 5 kts | 107° |
| 2026-05-04 00:40 | -45.78680 | -67.47720 | 205 ft | 7 kts | 78° |
| 2026-05-04 00:40 | -45.78670 | -67.47648 | 210 ft | 8 kts | 78° |
| 2026-05-04 00:40 | -45.78658 | -67.47567 | 204 ft | 9 kts | 78° |
| 2026-05-04 00:41 | -45.78643 | -67.47469 | 206 ft | 11 kts | 78° |
| 2026-05-04 00:41 | -45.78646 | -67.47347 | 193 ft | 14 kts | 126° |
| 2026-05-04 00:41 | -45.78732 | -67.47284 | 198 ft | 14 kts | 159° |
| 2026-05-04 00:41 | -45.78821 | -67.47239 | 203 ft | 13 kts | 162° |
| 2026-05-04 00:42 | -45.78897 | -67.47199 | 201 ft | 10 kts | 146° |
| 2026-05-04 00:42 | -45.78918 | -67.47106 | 195 ft | 10 kts | 84° |
| 2026-05-04 00:42 | -45.78916 | -67.47007 | 195 ft | 10 kts | 89° |
| 2026-05-04 00:42 | -45.78915 | -67.46923 | 195 ft | 8 kts | 88° |
| 2026-05-04 00:43 | -45.78919 | -67.46860 | 198 ft | 4 kts | 138° |
| 2026-05-04 00:43 | -45.78944 | -67.46878 | 204 ft | 4 kts | 225° |
| 2026-05-04 00:43 | -45.78947 | -67.46882 | 205 ft | 0 kts | 226° |